createdAt,value
2018-08-30T00:00:27.279Z,19.04
2018-08-30T00:01:33.057Z,19.00
2018-08-30T00:02:39.967Z,19.04
2018-08-30T00:03:45.668Z,19.05
2018-08-30T00:04:51.688Z,19.04
2018-08-30T00:05:57.724Z,19.06
2018-08-30T00:07:03.705Z,19.07
2018-08-30T00:08:09.813Z,19.17
2018-08-30T00:09:16.021Z,19.45
2018-08-30T00:10:22.391Z,19.59
2018-08-30T00:11:28.672Z,19.27
2018-08-30T00:12:34.670Z,19.22
2018-08-30T00:13:40.811Z,19.21
2018-08-30T00:14:46.652Z,19.17
2018-08-30T00:15:52.665Z,19.30
2018-08-30T00:16:58.787Z,19.61
2018-08-30T00:18:04.895Z,19.64
2018-08-30T00:19:10.897Z,19.73
2018-08-30T00:20:17.016Z,19.74
2018-08-30T00:21:22.677Z,19.63
2018-08-30T00:22:28.345Z,19.62
2018-08-30T00:23:34.389Z,19.78
2018-08-30T00:24:40.408Z,19.97
2018-08-30T00:25:46.417Z,19.85
2018-08-30T00:26:52.089Z,19.82
2018-08-30T00:27:58.115Z,19.75
2018-08-30T00:29:04.229Z,19.59
2018-08-30T00:30:10.234Z,19.60
2018-08-30T00:31:16.340Z,19.73
2018-08-30T00:32:22.580Z,19.61
2018-08-30T00:33:28.656Z,19.38
2018-08-30T00:34:34.664Z,19.36
2018-08-30T00:35:40.777Z,19.26
2018-08-30T00:36:46.781Z,19.24
2018-08-30T00:37:53.843Z,19.25
2018-08-30T00:38:59.723Z,19.34
2018-08-30T00:40:05.343Z,19.35
2018-08-30T00:41:11.491Z,19.36
2018-08-30T00:42:17.217Z,19.62
2018-08-30T00:43:22.872Z,19.73
2018-08-30T00:44:28.907Z,19.74
2018-08-30T00:45:35.125Z,19.95
2018-08-30T00:46:40.928Z,20.10
2018-08-30T00:47:46.709Z,20.24
2018-08-30T00:48:52.842Z,20.22
2018-08-30T00:49:58.579Z,20.22
2018-08-30T00:51:04.675Z,20.17
2018-08-30T00:52:10.665Z,20.08
2018-08-30T00:53:16.748Z,19.97
2018-08-30T00:54:22.859Z,19.90
2018-08-30T00:55:28.710Z,20.00
2018-08-30T00:56:34.754Z,19.92
2018-08-30T00:57:41.343Z,19.83
2018-08-30T00:58:47.376Z,19.87
2018-08-30T00:59:54.368Z,19.85
2018-08-30T01:01:00.055Z,19.92
2018-08-30T01:02:06.559Z,19.75
2018-08-30T01:03:12.175Z,19.73
2018-08-30T01:04:17.886Z,19.61
2018-08-30T01:05:23.933Z,19.52
2018-08-30T01:06:30.045Z,19.55
2018-08-30T01:07:36.032Z,19.84
2018-08-30T01:08:42.836Z,20.08
2018-08-30T01:09:49.012Z,20.24
2018-08-30T01:10:55.324Z,20.16
2018-08-30T01:12:01.447Z,19.86
2018-08-30T01:13:07.469Z,19.69
2018-08-30T01:14:13.709Z,19.49
2018-08-30T01:15:20.017Z,19.46
2018-08-30T01:16:25.778Z,19.47
2018-08-30T01:17:31.487Z,19.69
2018-08-30T01:18:37.526Z,19.91
2018-08-30T01:19:43.272Z,19.97
2018-08-30T01:20:49.338Z,19.94
2018-08-30T01:21:54.980Z,19.95
2018-08-30T01:23:00.344Z,19.87
2018-08-30T01:24:06.426Z,19.87
2018-08-30T01:25:12.185Z,20.13
2018-08-30T01:26:18.231Z,20.26
2018-08-30T01:27:24.237Z,20.36
2018-08-30T01:28:30.245Z,20.35
2018-08-30T01:29:36.246Z,20.20
2018-08-30T01:30:41.554Z,20.27
2018-08-30T01:31:46.953Z,20.37
2018-08-30T01:32:52.939Z,20.49
2018-08-30T01:33:58.583Z,20.52
2018-08-30T01:35:04.385Z,20.47
2018-08-30T01:36:10.076Z,20.47
2018-08-30T01:37:16.137Z,20.44
2018-08-30T01:38:22.251Z,20.24
2018-08-30T01:39:27.919Z,19.99
2018-08-30T01:40:33.914Z,19.78
2018-08-30T01:41:39.697Z,19.57
2018-08-30T01:42:45.752Z,19.59
2018-08-30T01:43:51.863Z,19.56
2018-08-30T01:44:57.970Z,19.68
2018-08-30T01:46:04.082Z,19.86
2018-08-30T01:47:09.743Z,20.02
2018-08-30T01:48:15.776Z,20.00
2018-08-30T01:49:21.884Z,19.74
2018-08-30T01:50:27.685Z,19.68
2018-08-30T01:51:33.671Z,19.77
2018-08-30T01:52:39.824Z,20.02
2018-08-30T01:53:46.002Z,20.03
2018-08-30T01:54:52.151Z,20.18
2018-08-30T01:55:58.123Z,20.23
2018-08-30T01:57:04.235Z,20.03
2018-08-30T01:58:10.332Z,19.74
2018-08-30T01:59:17.009Z,19.45
2018-08-30T02:00:23.171Z,19.19
2018-08-30T02:01:29.268Z,19.22
2018-08-30T02:02:35.275Z,19.29
2018-08-30T02:03:41.282Z,19.08
2018-08-30T02:04:47.306Z,19.06
2018-08-30T02:05:53.279Z,19.01
2018-08-30T02:06:59.427Z,18.98
2018-08-30T02:08:04.720Z,19.08
2018-08-30T02:09:10.802Z,19.15
2018-08-30T02:10:17.017Z,19.11
2018-08-30T02:11:23.029Z,19.08
2018-08-30T02:12:29.008Z,19.07
2018-08-30T02:13:35.160Z,19.07
2018-08-30T02:14:41.374Z,19.05
2018-08-30T02:15:47.412Z,19.28
2018-08-30T02:16:53.571Z,19.48
2018-08-30T02:17:59.217Z,19.45
2018-08-30T02:19:04.842Z,19.49
2018-08-30T02:20:10.158Z,19.47
2018-08-30T02:21:15.783Z,19.66
2018-08-30T02:22:21.843Z,19.72
2018-08-30T02:23:27.957Z,19.79
2018-08-30T02:24:34.052Z,19.71
2018-08-30T02:25:40.040Z,19.82
2018-08-30T02:26:46.043Z,19.91
2018-08-30T02:27:52.173Z,19.78
2018-08-30T02:28:58.179Z,19.61
2018-08-30T02:30:03.833Z,19.50
2018-08-30T02:31:09.871Z,19.43
2018-08-30T02:32:15.831Z,19.47
2018-08-30T02:33:21.655Z,19.52
2018-08-30T02:34:27.798Z,19.67
2018-08-30T02:35:33.897Z,19.66
2018-08-30T02:36:39.900Z,19.61
2018-08-30T02:37:45.914Z,19.49
2018-08-30T02:38:52.013Z,19.48
2018-08-30T02:39:58.038Z,19.31
2018-08-30T02:41:04.021Z,19.16
2018-08-30T02:42:10.167Z,19.08
2018-08-30T02:43:16.232Z,19.04
2018-08-30T02:44:22.339Z,19.13
2018-08-30T02:45:28.352Z,19.21
2018-08-30T02:46:34.341Z,19.09
2018-08-30T02:47:40.478Z,19.10
2018-08-30T02:48:46.472Z,19.08
2018-08-30T02:49:52.673Z,19.11
2018-08-30T02:50:58.032Z,19.23
2018-08-30T02:52:04.077Z,19.19
2018-08-30T02:53:10.174Z,19.24
2018-08-30T02:54:16.300Z,19.24
2018-08-30T02:55:22.045Z,19.22
2018-08-30T02:56:28.093Z,19.20
2018-08-30T02:57:34.113Z,19.36
2018-08-30T02:58:40.084Z,19.44
2018-08-30T02:59:46.089Z,19.45
2018-08-30T03:00:52.222Z,19.53
2018-08-30T03:01:58.318Z,19.66
2018-08-30T03:03:05.093Z,19.86
2018-08-30T03:04:11.176Z,19.86
2018-08-30T03:05:16.799Z,20.05
2018-08-30T03:06:22.849Z,20.32
2018-08-30T03:07:28.269Z,20.34
2018-08-30T03:08:34.250Z,20.19
2018-08-30T03:09:40.379Z,20.16
2018-08-30T03:10:46.459Z,20.26
2018-08-30T03:11:51.855Z,20.18
2018-08-30T03:12:57.843Z,20.37
2018-08-30T03:14:03.872Z,20.31
2018-08-30T03:15:09.280Z,20.24
2018-08-30T03:16:15.281Z,20.27
2018-08-30T03:17:21.270Z,20.45
2018-08-30T03:18:27.048Z,20.61
2018-08-30T03:19:33.071Z,20.58
2018-08-30T03:20:39.230Z,20.60
2018-08-30T03:21:45.308Z,20.63
2018-08-30T03:22:51.401Z,20.61
2018-08-30T03:23:57.371Z,20.73
2018-08-30T03:25:03.051Z,20.71
2018-08-30T03:26:09.084Z,20.52
2018-08-30T03:27:15.198Z,20.51
2018-08-30T03:28:21.212Z,20.44
2018-08-30T03:29:27.245Z,20.40
2018-08-30T03:30:33.231Z,20.58
2018-08-30T03:31:39.287Z,20.89
2018-08-30T03:32:45.331Z,20.87
2018-08-30T03:33:51.347Z,20.70
2018-08-30T03:34:58.053Z,20.60
2018-08-30T03:36:04.173Z,20.53
2018-08-30T03:37:10.841Z,20.44
2018-08-30T03:38:16.884Z,20.42
2018-08-30T03:39:22.718Z,20.53
2018-08-30T03:40:28.807Z,20.53
2018-08-30T03:41:34.686Z,20.64
2018-08-30T03:42:40.740Z,20.72
2018-08-30T03:43:46.732Z,20.55
2018-08-30T03:44:52.828Z,20.36
2018-08-30T03:45:58.935Z,20.32
2018-08-30T03:47:04.393Z,20.30
2018-08-30T03:48:10.627Z,20.45
2018-08-30T03:49:16.656Z,20.38
2018-08-30T03:50:22.751Z,20.32
2018-08-30T03:51:28.750Z,20.64
2018-08-30T03:52:34.886Z,20.88
2018-08-30T03:53:40.883Z,20.88
2018-08-30T03:54:46.993Z,20.85
2018-08-30T03:55:52.996Z,20.94
2018-08-30T03:56:59.088Z,20.86
2018-08-30T03:58:04.848Z,20.72
2018-08-30T03:59:10.879Z,20.72
2018-08-30T04:00:16.908Z,20.75
2018-08-30T04:01:22.910Z,20.69
2018-08-30T04:02:29.016Z,20.94
2018-08-30T04:03:35.022Z,20.81
2018-08-30T04:04:41.142Z,20.67
2018-08-30T04:05:51.727Z,20.77
2018-08-30T04:07:03.698Z,20.90
2018-08-30T04:08:18.492Z,20.90
2018-08-30T04:09:32.557Z,20.87
2018-08-30T04:10:46.270Z,20.92
2018-08-30T04:12:00.640Z,21.01
2018-08-30T04:13:14.789Z,20.95
2018-08-30T04:14:27.902Z,21.08
2018-08-30T04:15:40.784Z,20.84
2018-08-30T04:16:54.720Z,20.90
2018-08-30T04:18:10.415Z,20.98
2018-08-30T04:19:26.362Z,20.84
2018-08-30T04:20:42.614Z,20.78
2018-08-30T04:21:51.209Z,20.65
2018-08-30T04:22:57.342Z,20.73
2018-08-30T04:24:03.643Z,20.75
2018-08-30T04:25:09.968Z,20.64
2018-08-30T04:26:16.062Z,20.85
2018-08-30T04:27:22.080Z,20.87
2018-08-30T04:28:28.177Z,20.66
2018-08-30T04:29:34.795Z,20.47
2018-08-30T04:30:40.799Z,20.47
2018-08-30T04:31:46.927Z,20.54
2018-08-30T04:32:52.933Z,20.54
2018-08-30T04:33:58.915Z,20.36
2018-08-30T04:35:04.622Z,20.25
2018-08-30T04:36:10.729Z,20.43
2018-08-30T04:37:16.719Z,20.41
2018-08-30T04:38:22.727Z,20.33
2018-08-30T04:39:28.848Z,20.29
2018-08-30T04:40:36.245Z,20.18
2018-08-30T04:41:43.092Z,20.18
2018-08-30T04:42:49.267Z,20.33
2018-08-30T04:43:55.515Z,20.31
2018-08-30T04:45:01.623Z,20.09
2018-08-30T04:46:07.752Z,19.97
2018-08-30T04:47:14.163Z,19.95
2018-08-30T04:48:20.646Z,19.97
2018-08-30T04:49:26.678Z,20.19
2018-08-30T04:50:32.803Z,20.24
2018-08-30T04:51:39.289Z,20.46
2018-08-30T04:52:45.474Z,20.40
2018-08-30T04:53:51.985Z,20.17
2018-08-30T04:54:57.944Z,20.00
2018-08-30T04:56:14.240Z,19.91
2018-08-30T04:57:23.640Z,19.82
2018-08-30T04:58:29.744Z,19.75
2018-08-30T04:59:35.859Z,19.64
2018-08-30T05:00:41.629Z,19.62
2018-08-30T05:01:47.715Z,19.69
2018-08-30T05:02:53.644Z,19.71
2018-08-30T05:03:59.557Z,19.59
2018-08-30T05:05:05.321Z,19.66
2018-08-30T05:06:11.389Z,19.69
2018-08-30T05:07:17.407Z,19.60
2018-08-30T05:08:23.494Z,19.56
2018-08-30T05:09:29.338Z,19.53
2018-08-30T05:10:35.361Z,19.51
2018-08-30T05:11:41.450Z,19.45
2018-08-30T05:12:47.625Z,19.58
2018-08-30T05:13:53.901Z,19.69
2018-08-30T05:15:00.055Z,19.47
2018-08-30T05:16:05.702Z,19.57
2018-08-30T05:17:11.752Z,19.51
2018-08-30T05:18:17.750Z,19.30
2018-08-30T05:19:24.469Z,19.30
2018-08-30T05:20:30.483Z,19.33
2018-08-30T05:21:36.675Z,19.32
2018-08-30T05:22:42.810Z,19.37
2018-08-30T05:23:49.025Z,19.35
2018-08-30T05:24:55.151Z,19.44
2018-08-30T05:26:01.325Z,19.73
2018-08-30T05:27:07.434Z,19.66
2018-08-30T05:28:13.527Z,19.70
2018-08-30T05:29:19.531Z,19.69
2018-08-30T05:30:25.536Z,19.47
2018-08-30T05:31:31.505Z,19.51
2018-08-30T05:32:48.753Z,19.51
2018-08-30T05:34:08.456Z,19.49
2018-08-30T05:35:19.056Z,19.38
2018-08-30T05:36:25.444Z,19.36
2018-08-30T05:37:31.552Z,19.36
2018-08-30T05:38:37.075Z,19.36
2018-08-30T05:39:42.834Z,19.55
2018-08-30T05:40:48.530Z,19.38
2018-08-30T05:41:54.564Z,19.26
2018-08-30T05:43:00.651Z,19.20
2018-08-30T05:44:06.077Z,19.24
2018-08-30T05:45:12.185Z,19.21
2018-08-30T05:46:18.343Z,19.23
2018-08-30T05:47:24.485Z,19.13
2018-08-30T05:48:30.579Z,18.88
2018-08-30T05:49:36.683Z,18.87
2018-08-30T05:50:42.688Z,18.92
2018-08-30T05:51:48.818Z,19.00
2018-08-30T05:52:54.981Z,19.01
2018-08-30T05:54:01.020Z,18.82
2018-08-30T05:55:06.661Z,18.99
2018-08-30T05:56:12.484Z,19.08
2018-08-30T05:57:18.639Z,19.06
2018-08-30T05:58:24.615Z,19.04
2018-08-30T05:59:30.739Z,19.02
2018-08-30T06:00:36.767Z,19.07
2018-08-30T06:01:42.740Z,18.93
2018-08-30T06:02:48.920Z,18.65
2018-08-30T06:03:55.050Z,18.56
2018-08-30T06:05:01.084Z,18.36
2018-08-30T06:06:07.074Z,18.51
2018-08-30T06:07:13.158Z,18.49
2018-08-30T06:08:20.486Z,18.61
2018-08-30T06:09:26.828Z,18.65
2018-08-30T06:10:32.640Z,18.72
2018-08-30T06:11:38.738Z,18.85
2018-08-30T06:12:45.291Z,18.91
2018-08-30T06:13:51.451Z,18.89
2018-08-30T06:14:57.555Z,18.78
2018-08-30T06:16:04.201Z,18.55
2018-08-30T06:17:10.291Z,18.43
2018-08-30T06:18:16.325Z,18.71
2018-08-30T06:19:22.508Z,18.76
2018-08-30T06:20:28.626Z,18.78
2018-08-30T06:21:34.617Z,18.78
2018-08-30T06:22:40.471Z,18.79
2018-08-30T06:23:46.287Z,18.78
2018-08-30T06:24:52.836Z,18.94
2018-08-30T06:25:59.023Z,19.01
2018-08-30T06:27:04.797Z,18.94
2018-08-30T06:28:11.024Z,18.91
2018-08-30T06:29:18.267Z,18.60
2018-08-30T06:30:24.596Z,18.69
2018-08-30T06:31:30.716Z,18.76
2018-08-30T06:32:36.502Z,18.71
2018-08-30T06:33:42.536Z,18.68
2018-08-30T06:34:48.692Z,18.47
2018-08-30T06:35:55.096Z,18.25
2018-08-30T06:37:01.024Z,18.39
2018-08-30T06:38:07.091Z,18.34
2018-08-30T06:39:13.256Z,18.54
2018-08-30T06:40:19.469Z,18.52
2018-08-30T06:41:25.498Z,18.29
2018-08-30T06:42:31.584Z,18.31
2018-08-30T06:43:37.567Z,18.53
2018-08-30T06:44:43.576Z,18.35
2018-08-30T06:45:50.412Z,18.48
2018-08-30T06:46:56.373Z,18.46
2018-08-30T06:48:02.528Z,18.67
2018-08-30T06:49:08.632Z,18.78
2018-08-30T06:50:14.633Z,18.64
2018-08-30T06:51:20.652Z,18.42
2018-08-30T06:52:26.629Z,18.22
2018-08-30T06:53:32.672Z,18.30
2018-08-30T06:54:38.656Z,18.28
2018-08-30T06:55:44.727Z,18.46
2018-08-30T06:56:50.771Z,18.47
2018-08-30T06:57:56.897Z,18.53
2018-08-30T06:59:02.988Z,18.50
2018-08-30T07:00:08.807Z,18.67
2018-08-30T07:01:14.775Z,18.54
2018-08-30T07:02:20.801Z,18.49
2018-08-30T07:03:26.800Z,18.39
2018-08-30T07:04:32.907Z,18.36
2018-08-30T07:05:39.036Z,18.56
2018-08-30T07:06:45.183Z,18.51
2018-08-30T07:07:51.584Z,18.56
2018-08-30T07:08:57.647Z,18.62
2018-08-30T07:10:03.770Z,18.81
2018-08-30T07:11:09.878Z,18.55
2018-08-30T07:12:15.628Z,18.62
2018-08-30T07:13:21.617Z,18.48
2018-08-30T07:14:27.865Z,18.32
2018-08-30T07:15:33.967Z,18.31
2018-08-30T07:16:40.004Z,18.45
2018-08-30T07:17:46.009Z,18.42
2018-08-30T07:18:52.561Z,18.17
2018-08-30T07:19:58.607Z,18.23
2018-08-30T07:21:04.659Z,18.26
2018-08-30T07:22:10.856Z,18.39
2018-08-30T07:23:17.163Z,18.41
2018-08-30T07:24:26.454Z,18.52
2018-08-30T07:25:32.765Z,18.33
2018-08-30T07:26:38.950Z,18.48
2018-08-30T07:27:50.699Z,18.35
2018-08-30T07:28:57.800Z,18.51
2018-08-30T07:30:03.946Z,18.35
2018-08-30T07:31:10.139Z,18.17
2018-08-30T07:32:16.976Z,18.28
2018-08-30T07:33:28.892Z,18.31
2018-08-30T07:34:34.908Z,18.38
2018-08-30T07:35:41.294Z,18.37
2018-08-30T07:36:52.857Z,18.37
2018-08-30T07:38:04.843Z,18.69
2018-08-30T07:39:10.573Z,18.83
2018-08-30T07:40:16.585Z,18.80
2018-08-30T07:41:22.579Z,18.85
2018-08-30T07:42:28.716Z,18.89
2018-08-30T07:43:34.754Z,18.86
2018-08-30T07:44:40.968Z,18.97
2018-08-30T07:45:47.228Z,18.88
2018-08-30T07:46:53.332Z,18.68
2018-08-30T07:47:59.549Z,18.66
2018-08-30T07:49:05.213Z,18.59
2018-08-30T07:50:11.253Z,18.75
2018-08-30T07:51:16.892Z,18.60
2018-08-30T07:52:22.968Z,18.66
2018-08-30T07:53:28.956Z,18.70
2018-08-30T07:54:35.125Z,18.84
2018-08-30T07:55:41.404Z,19.00
2018-08-30T07:56:47.602Z,19.11
2018-08-30T07:57:53.711Z,18.80
2018-08-30T07:59:00.160Z,18.78
2018-08-30T08:00:05.395Z,18.86
2018-08-30T08:01:11.344Z,18.97
2018-08-30T08:02:17.421Z,18.78
2018-08-30T08:03:23.933Z,18.78
2018-08-30T08:04:30.067Z,18.88
2018-08-30T08:05:36.253Z,19.03
2018-08-30T08:06:43.083Z,18.76
2018-08-30T08:07:49.192Z,18.68
2018-08-30T08:08:55.287Z,18.59
2018-08-30T08:10:01.304Z,18.45
2018-08-30T08:11:07.405Z,18.22
2018-08-30T08:12:13.587Z,18.22
2018-08-30T08:13:29.001Z,18.18
2018-08-30T08:14:35.010Z,18.32
2018-08-30T08:15:41.147Z,18.22
2018-08-30T08:16:47.115Z,18.15
2018-08-30T08:17:53.251Z,18.10
2018-08-30T08:18:59.368Z,17.97
2018-08-30T08:20:05.332Z,18.00
2018-08-30T08:21:11.359Z,17.89
2018-08-30T08:22:17.470Z,17.91
2018-08-30T08:23:23.580Z,17.98
2018-08-30T08:24:29.699Z,17.99
2018-08-30T08:25:36.386Z,17.85
2018-08-30T08:26:42.518Z,17.86
2018-08-30T08:27:48.643Z,17.76
2018-08-30T08:28:54.373Z,17.70
2018-08-30T08:30:00.412Z,17.70
2018-08-30T08:31:06.441Z,17.68
2018-08-30T08:32:12.448Z,17.56
2018-08-30T08:33:18.556Z,17.49
2018-08-30T08:34:24.551Z,17.53
2018-08-30T08:35:30.663Z,17.51
2018-08-30T08:36:36.420Z,17.47
2018-08-30T08:37:42.484Z,17.39
2018-08-30T08:38:48.471Z,17.42
2018-08-30T08:39:54.595Z,17.65
2018-08-30T08:41:00.334Z,17.76
2018-08-30T08:42:06.387Z,17.59
2018-08-30T08:43:12.164Z,17.58
2018-08-30T08:44:18.316Z,17.40
2018-08-30T08:45:24.297Z,17.46
2018-08-30T08:46:30.052Z,17.40
2018-08-30T08:47:35.800Z,17.49
2018-08-30T08:48:41.826Z,17.42
2018-08-30T08:49:48.516Z,17.28
2018-08-30T08:50:54.544Z,17.28
2018-08-30T08:52:00.541Z,17.30
2018-08-30T08:53:06.639Z,17.28
2018-08-30T08:54:12.647Z,17.11
2018-08-30T08:55:18.773Z,17.15
2018-08-30T08:56:24.752Z,17.22
2018-08-30T08:57:30.863Z,17.13
2018-08-30T08:58:36.880Z,17.03
2018-08-30T08:59:42.988Z,16.95
2018-08-30T09:00:49.108Z,17.15
2018-08-30T09:01:55.087Z,17.10
2018-08-30T09:03:01.205Z,17.13
2018-08-30T09:04:07.014Z,17.05
2018-08-30T09:05:13.018Z,16.85
2018-08-30T09:06:19.015Z,17.00
2018-08-30T09:07:25.132Z,17.03
2018-08-30T09:08:31.331Z,16.93
2018-08-30T09:09:37.472Z,16.95
2018-08-30T09:10:43.543Z,17.12
2018-08-30T09:11:49.647Z,17.16
2018-08-30T09:12:55.759Z,17.03
2018-08-30T09:14:01.880Z,17.05
2018-08-30T09:15:07.532Z,17.08
2018-08-30T09:16:13.564Z,17.01
2018-08-30T09:17:19.559Z,17.13
2018-08-30T09:18:25.749Z,17.06
2018-08-30T09:19:31.983Z,17.13
2018-08-30T09:20:38.102Z,17.26
2018-08-30T09:21:44.947Z,17.24
2018-08-30T09:23:00.123Z,17.10
2018-08-30T09:24:19.991Z,17.14
2018-08-30T09:25:36.096Z,17.21
2018-08-30T09:26:53.917Z,17.24
2018-08-30T09:28:18.278Z,17.19
2018-08-30T09:29:36.842Z,17.18
2018-08-30T09:30:52.729Z,17.23
2018-08-30T09:32:09.599Z,17.28
2018-08-30T09:33:28.705Z,17.31
2018-08-30T09:34:43.289Z,17.35
2018-08-30T09:36:04.257Z,17.20
2018-08-30T09:37:26.253Z,17.47
2018-08-30T09:38:48.542Z,17.40
2018-08-30T09:40:09.940Z,17.45
2018-08-30T09:41:30.953Z,17.43
2018-08-30T09:42:48.290Z,17.47
2018-08-30T09:44:10.147Z,17.59
2018-08-30T09:45:31.108Z,17.73
2018-08-30T09:46:52.469Z,17.61
2018-08-30T09:48:13.752Z,17.51
2018-08-30T09:49:32.161Z,17.54
2018-08-30T09:50:53.043Z,17.41
2018-08-30T09:52:10.601Z,17.42
2018-08-30T09:53:32.715Z,17.47
2018-08-30T09:54:56.046Z,17.51
2018-08-30T09:56:19.220Z,17.43
2018-08-30T09:57:40.687Z,17.53
2018-08-30T09:59:01.490Z,17.63
2018-08-30T10:00:24.581Z,17.64
2018-08-30T10:01:51.397Z,17.60
2018-08-30T10:03:11.844Z,17.63
2018-08-30T10:04:33.663Z,17.76
2018-08-30T10:05:50.923Z,17.67
2018-08-30T10:07:07.345Z,17.77
2018-08-30T10:08:31.100Z,17.81
2018-08-30T10:09:51.112Z,17.88
2018-08-30T10:11:12.593Z,17.89
2018-08-30T10:12:30.516Z,17.91
2018-08-30T10:13:46.112Z,17.76
2018-08-30T10:15:01.646Z,17.63
2018-08-30T10:16:18.296Z,17.72
2018-08-30T10:19:10.408Z,17.74
2018-08-30T10:20:34.780Z,17.68
2018-08-30T10:21:57.472Z,17.65
2018-08-30T10:23:22.960Z,17.61
2018-08-30T10:24:44.969Z,17.62
2018-08-30T10:26:06.876Z,17.62
2018-08-30T10:27:30.783Z,17.49
2018-08-30T10:28:53.641Z,17.46
2018-08-30T10:30:12.889Z,17.68
2018-08-30T10:31:30.489Z,17.61
2018-08-30T10:32:52.969Z,17.68
2018-08-30T10:34:14.892Z,17.50
2018-08-30T10:35:34.999Z,17.52
2018-08-30T10:36:58.004Z,17.75
2018-08-30T10:38:19.681Z,17.59
2018-08-30T10:39:42.739Z,17.36
2018-08-30T10:41:04.988Z,17.32
2018-08-30T10:42:26.021Z,17.28
2018-08-30T10:43:48.558Z,17.40
2018-08-30T10:57:59.763Z,16.76
2018-08-30T10:59:19.107Z,16.85
2018-08-30T11:00:38.568Z,16.88
2018-08-30T11:01:58.289Z,16.92
2018-08-30T11:03:22.384Z,17.07
2018-08-30T11:04:42.336Z,17.06
2018-08-30T11:06:02.627Z,16.90
2018-08-30T11:07:21.443Z,16.92
2018-08-30T11:08:41.660Z,17.04
2018-08-30T11:10:01.360Z,17.15
2018-08-30T11:11:21.046Z,17.17
2018-08-30T11:12:44.912Z,17.16
2018-08-30T11:14:06.201Z,17.18
2018-08-30T11:15:25.660Z,17.13
2018-08-30T11:16:46.271Z,17.26
2018-08-30T11:18:10.264Z,17.40
2018-08-30T11:19:26.881Z,17.38
2018-08-30T11:20:44.916Z,17.23
2018-08-30T11:22:03.325Z,17.32
2018-08-30T11:23:20.773Z,17.43
2018-08-30T11:24:38.611Z,17.43
2018-08-30T11:25:54.216Z,17.56
2018-08-30T11:27:11.661Z,17.38
2018-08-30T11:28:28.235Z,17.36
2018-08-30T11:29:43.051Z,17.52
2018-08-30T11:31:02.193Z,17.61
2018-08-30T11:32:23.412Z,17.70
2018-08-30T11:33:45.716Z,17.55
2018-08-30T11:35:02.936Z,17.49
2018-08-30T11:36:19.741Z,17.63
2018-08-30T11:37:39.566Z,17.78
2018-08-30T11:38:55.326Z,17.69
2018-08-30T11:40:12.034Z,17.71
2018-08-30T11:41:28.659Z,17.76
2018-08-30T11:42:44.703Z,17.93
2018-08-30T11:44:02.639Z,18.02
2018-08-30T11:45:24.206Z,18.07
2018-08-30T11:46:33.792Z,18.05
2018-08-30T11:47:51.597Z,18.09
2018-08-30T11:49:12.373Z,17.97
2018-08-30T11:50:32.372Z,18.07
2018-08-30T11:51:55.070Z,18.18
2018-08-30T11:53:18.547Z,18.23
2018-08-30T11:54:38.194Z,18.26
2018-08-30T11:55:58.751Z,18.28
2018-08-30T11:57:20.441Z,18.34
2018-08-30T11:58:41.718Z,18.28
2018-08-30T12:00:01.861Z,18.30
2018-08-30T12:01:25.855Z,18.26
2018-08-30T12:02:48.456Z,18.26
2018-08-30T12:04:09.618Z,18.14
2018-08-30T12:05:30.924Z,18.25
2018-08-30T12:06:52.807Z,18.28
2018-08-30T12:08:13.888Z,18.22
2018-08-30T12:09:34.718Z,18.24
2018-08-30T12:10:56.228Z,18.24
2018-08-30T12:12:16.018Z,18.20
2018-08-30T12:13:36.197Z,18.21
2018-08-30T12:14:55.970Z,18.27
2018-08-30T12:16:15.920Z,18.28
2018-08-30T12:17:33.542Z,18.32
2018-08-30T12:18:51.636Z,18.36
2018-08-30T12:20:12.344Z,18.24
2018-08-30T12:21:33.830Z,18.25
2018-08-30T12:22:53.737Z,18.23
2018-08-30T12:24:10.705Z,18.18
2018-08-30T12:25:31.677Z,18.31
2018-08-30T12:26:54.557Z,18.40
2018-08-30T12:28:15.965Z,18.45
2018-08-30T12:29:35.788Z,18.43
2018-08-30T12:30:55.053Z,18.38
2018-08-30T12:32:16.490Z,18.36
2018-08-30T12:33:39.423Z,18.46
2018-08-30T12:34:58.917Z,18.27
2018-08-30T12:36:20.432Z,18.35
2018-08-30T12:37:44.635Z,18.49
2018-08-30T12:39:04.803Z,18.59
2018-08-30T12:40:25.058Z,18.48
2018-08-30T12:41:45.802Z,18.45
2018-08-30T12:43:04.911Z,18.47
2018-08-30T12:44:25.992Z,18.55
2018-08-30T12:45:46.038Z,18.60
2018-08-30T12:47:06.531Z,18.56
2018-08-30T12:48:27.781Z,18.50
2018-08-30T12:49:48.526Z,18.45
2018-08-30T12:51:10.976Z,18.46
2018-08-30T12:52:31.397Z,18.45
2018-08-30T12:53:48.753Z,18.47
2018-08-30T12:55:04.916Z,18.50
2018-08-30T12:56:24.900Z,18.50
2018-08-30T12:57:46.569Z,18.51
2018-08-30T12:59:08.270Z,18.52
2018-08-30T13:00:27.842Z,18.50
2018-08-30T13:01:43.508Z,18.46
2018-08-30T13:03:04.344Z,18.53
2018-08-30T13:04:25.123Z,18.57
2018-08-30T13:05:44.045Z,18.53
2018-08-30T13:07:05.020Z,18.62
2018-08-30T13:08:25.939Z,18.70
2018-08-30T13:09:44.724Z,18.68
2018-08-30T13:11:05.194Z,18.63
2018-08-30T13:12:24.806Z,18.67
2018-08-30T13:13:47.400Z,18.66
2018-08-30T13:15:09.430Z,18.61
2018-08-30T13:16:29.760Z,18.72
2018-08-30T13:17:48.232Z,18.57
2018-08-30T13:19:05.954Z,18.60
2018-08-30T13:20:26.333Z,18.50
2018-08-30T13:21:44.413Z,18.57
2018-08-30T13:23:03.851Z,18.45
2018-08-30T13:24:24.446Z,18.53
2018-08-30T13:25:45.797Z,18.59
2018-08-30T13:27:09.028Z,18.69
2018-08-30T13:28:29.061Z,18.74
2018-08-30T13:29:49.660Z,18.77
2018-08-30T13:31:12.997Z,18.82
2018-08-30T13:32:34.982Z,18.83
2018-08-30T13:33:53.853Z,18.71
2018-08-30T13:35:11.588Z,18.93
2018-08-30T13:36:30.664Z,18.88
2018-08-30T13:37:52.253Z,18.87
2018-08-30T13:39:15.704Z,18.89
2018-08-30T13:40:39.125Z,18.88
2018-08-30T13:42:05.179Z,18.93
2018-08-30T13:43:26.805Z,19.11
2018-08-30T13:44:48.867Z,19.22
2018-08-30T13:46:11.412Z,19.05
2018-08-30T13:47:33.308Z,18.99
2018-08-30T13:48:54.946Z,19.07
2018-08-30T13:50:18.000Z,19.20
2018-08-30T13:51:39.613Z,19.22
2018-08-30T13:53:00.146Z,19.37
2018-08-30T13:54:21.707Z,19.43
2018-08-30T13:55:43.569Z,19.45
2018-08-30T13:57:08.567Z,19.52
2018-08-30T13:58:29.693Z,19.46
2018-08-30T13:59:53.191Z,19.50
2018-08-30T14:01:13.723Z,19.55
2018-08-30T14:02:36.943Z,19.79
2018-08-30T14:03:55.532Z,19.82
2018-08-30T14:05:17.264Z,19.80
2018-08-30T14:06:37.888Z,19.75
2018-08-30T14:07:59.701Z,19.95
2018-08-30T14:09:24.129Z,19.98
2018-08-30T14:10:45.711Z,19.77
2018-08-30T14:12:07.821Z,19.89
2018-08-30T14:13:32.300Z,19.91
2018-08-30T14:14:57.218Z,19.78
2018-08-30T14:16:20.385Z,19.71
2018-08-30T14:17:42.799Z,19.88
2018-08-30T14:19:02.446Z,19.89
2018-08-30T14:20:23.967Z,19.88
2018-08-30T14:21:44.438Z,19.94
2018-08-30T14:23:09.852Z,20.03
2018-08-30T14:24:36.746Z,19.95
2018-08-30T14:26:01.488Z,19.93
2018-08-30T14:27:23.678Z,19.91
2018-08-30T14:28:46.609Z,19.95
2018-08-30T14:30:09.469Z,19.97
2018-08-30T14:31:27.960Z,20.01
2018-08-30T14:32:54.019Z,20.34
2018-08-30T14:34:14.442Z,20.14
2018-08-30T14:35:37.597Z,20.29
2018-08-30T14:36:57.788Z,20.21
2018-08-30T14:38:18.700Z,20.15
2018-08-30T14:39:38.363Z,20.08
2018-08-30T14:40:58.181Z,20.20
2018-08-30T14:42:18.987Z,20.20
2018-08-30T14:43:40.021Z,20.18
2018-08-30T14:45:02.838Z,20.14
2018-08-30T14:46:26.825Z,20.15
2018-08-30T14:47:47.592Z,20.05
2018-08-30T14:49:07.724Z,20.14
2018-08-30T14:50:27.964Z,20.13
2018-08-30T14:51:47.084Z,19.96
2018-08-30T14:53:08.706Z,19.97
2018-08-30T14:54:28.222Z,20.03
2018-08-30T14:55:48.880Z,19.93
2018-08-30T14:57:09.907Z,20.05
2018-08-30T14:58:34.078Z,19.92
2018-08-30T14:59:54.902Z,19.90
2018-08-30T15:01:04.095Z,19.85
2018-08-30T15:02:10.172Z,19.92
2018-08-30T15:03:16.136Z,19.68
2018-08-30T15:04:22.719Z,19.57
2018-08-30T15:05:28.955Z,19.51
2018-08-30T15:06:34.995Z,19.51
2018-08-30T15:07:41.105Z,19.34
2018-08-30T15:08:47.193Z,19.36
2018-08-30T15:09:53.262Z,19.20
2018-08-30T15:10:59.340Z,19.29
2018-08-30T15:12:05.416Z,19.43
2018-08-30T15:13:11.406Z,19.48
2018-08-30T15:14:17.488Z,19.31
2018-08-30T15:15:23.562Z,19.29
2018-08-30T15:16:29.668Z,19.18
2018-08-30T15:17:35.699Z,19.26
2018-08-30T15:18:41.858Z,19.24
2018-08-30T15:19:48.795Z,19.07
2018-08-30T15:20:55.035Z,18.97
2018-08-30T15:22:01.092Z,19.06
2018-08-30T15:23:07.183Z,18.98
2018-08-30T15:24:13.431Z,18.93
2018-08-30T15:25:19.501Z,18.92
2018-08-30T15:26:25.788Z,19.09